AVV weather

Avalon Airport
Melbourne, Victoria, Australia

Public forecast

Using degrees Celsius for public forecast. Weather courtesy of forecast.io.

METAR (pilot weather report)

Retrieved 2017/06/28 04:30 UTC (26 minutes ago):

YMAV 280430Z AUTO 30008KT 9999 -DZ SCT056 BKN072 OVC089 14/08 Q1021

TAF (pilot weather forecast)

Forecast is more than 12 hours old.

Retrieved 2017/06/27 00:33 UTC (1 day ago):

TAF YMAV 272325Z 2800/2824 32010KT 9999 BKN045 FM282000 29010KT 9999 -SHRA SCT020 BKN040